Time;durP1;ratioP1;P1;durP2;ratioP2;P2;SDS_P1;SDS_P2;PMS_P1;PMS_P2;Temp;Humidity;BMP_temperature;BMP_pressure;BME280_temperature;BME280_humidity;BME280_pressure;Samples;Min_cycle;Max_cycle;Signal;HPM_P1;HPM_P2
2022/02/18 00:01:50;;;;;;;20.80;14.88;;;;;;;;;;5015426;28;20022;-77
2022/02/18 00:04:16;;;;;;;24.10;15.50;;;;;;;;;;5015728;28;20054;-77
2022/02/18 00:06:43;;;;;;;24.15;15.32;;;;;;;;;;5015289;28;20030;-77
2022/02/18 00:09:09;;;;;;;51.38;31.63;;;;;;;;;;5015214;28;20030;-78
2022/02/18 00:11:35;;;;;;;44.03;26.60;;;;;;;;;;5015457;28;20466;-78
2022/02/18 00:14:01;;;;;;;26.70;18.98;;;;;;;;;;5014783;28;20033;-78
2022/02/18 00:16:27;;;;;;;22.23;15.07;;;;;;;;;;5015147;28;20029;-77
2022/02/18 00:18:53;;;;;;;25.73;19.23;;;;;;;;;;5013905;28;20046;-77
2022/02/18 00:21:19;;;;;;;25.27;16.40;;;;;;;;;;5015379;28;20036;-78
2022/02/18 00:23:45;;;;;;;23.67;17.23;;;;;;;;;;5015251;28;20401;-78
2022/02/18 00:26:12;;;;;;;19.55;14.23;;;;;;;;;;5015032;28;20112;-78
2022/02/18 00:28:38;;;;;;;18.33;14.70;;;;;;;;;;5013821;28;20069;-78
2022/02/18 00:31:04;;;;;;;113.82;59.03;;;;;;;;;;5014576;28;20116;-78
2022/02/18 00:33:31;;;;;;;37.40;22.25;;;;;;;;;;5015195;28;20030;-79
2022/02/18 00:35:57;;;;;;;30.63;17.30;;;;;;;;;;5014282;28;20057;-78
2022/02/18 00:38:23;;;;;;;53.67;30.83;;;;;;;;;;5014900;28;20026;-78
2022/02/18 00:40:49;;;;;;;29.45;17.95;;;;;;;;;;5014687;28;20030;-77
2022/02/18 00:43:15;;;;;;;32.38;19.45;;;;;;;;;;5014698;28;20373;-77
2022/02/18 00:45:42;;;;;;;23.50;14.35;;;;;;;;;;5014911;28;20030;-78
2022/02/18 00:48:09;;;;;;;15.40;10.55;;;;;;;;;;5013295;28;20026;-77
2022/02/18 00:50:35;;;;;;;14.85;9.88;;;;;;;;;;5014804;28;20052;-77
2022/02/18 00:53:02;;;;;;;14.48;9.90;;;;;;;;;;5012226;28;20060;-78
2022/02/18 00:55:29;;;;;;;17.33;10.48;;;;;;;;;;5013331;28;20037;-77
2022/02/18 00:57:55;;;;;;;16.42;11.23;;;;;;;;;;5014569;28;20028;-78
2022/02/18 01:00:21;;;;;;;19.15;12.45;;;;;;;;;;5014326;28;20037;-78
2022/02/18 01:02:47;;;;;;;18.17;11.25;;;;;;;;;;5013216;28;20032;-77
2022/02/18 01:05:14;;;;;;;14.45;9.00;;;;;;;;;;5014399;28;20026;-77
2022/02/18 01:07:40;;;;;;;14.15;8.60;;;;;;;;;;5014470;28;20103;-77
2022/02/18 01:10:07;;;;;;;14.60;8.65;;;;;;;;;;5014168;28;20026;-77
2022/02/18 01:12:33;;;;;;;14.25;7.60;;;;;;;;;;5014370;28;20387;-77
2022/02/18 01:15:00;;;;;;;10.55;7.63;;;;;;;;;;5014237;28;20432;-77
2022/02/18 01:17:26;;;;;;;11.50;7.55;;;;;;;;;;5014130;28;20037;-77
2022/02/18 01:19:52;;;;;;;12.63;6.80;;;;;;;;;;5014089;28;20058;-77
2022/02/18 01:22:18;;;;;;;18.95;9.68;;;;;;;;;;5013958;28;20484;-78
2022/02/18 01:24:44;;;;;;;13.60;8.40;;;;;;;;;;5014057;28;20509;-78
2022/02/18 01:27:10;;;;;;;12.15;8.18;;;;;;;;;;5012720;28;20054;-78
2022/02/18 01:29:39;;;;;;;11.45;6.97;;;;;;;;;;5014188;28;20076;-78
2022/02/18 01:32:06;;;;;;;9.57;6.55;;;;;;;;;;5013838;28;20107;-78
2022/02/18 01:34:33;;;;;;;68.00;35.00;;;;;;;;;;5012609;28;20064;-78
2022/02/18 01:36:59;;;;;;;48.22;23.75;;;;;;;;;;5013808;28;20053;-78
2022/02/18 01:39:25;;;;;;;34.47;20.27;;;;;;;;;;5013436;28;20088;-78
2022/02/18 01:41:51;;;;;;;25.40;15.38;;;;;;;;;;5012402;28;20096;-78
2022/02/18 01:44:36;;;;;;;14.30;9.38;;;;;;;;;;5013517;28;20107;-77
2022/02/18 01:47:02;;;;;;;;;;;;;;;;;;5013817;28;20100;-77
2022/02/18 01:49:28;;;;;;;11.82;8.07;;;;;;;;;;5013590;28;19941;-77
2022/02/18 01:51:55;;;;;;;15.88;10.15;;;;;;;;;;5013532;28;20440;-78
2022/02/18 01:54:21;;;;;;;14.50;10.10;;;;;;;;;;5013482;28;20097;-78
2022/02/18 01:56:48;;;;;;;24.20;14.90;;;;;;;;;;5013590;28;20022;-78
2022/02/18 01:59:14;;;;;;;19.63;12.23;;;;;;;;;;5013197;28;20030;-78
2022/02/18 02:01:40;;;;;;;14.07;9.48;;;;;;;;;;5013478;28;20044;-77
2022/02/18 02:04:09;;;;;;;10.65;7.05;;;;;;;;;;5012813;28;20030;-78
2022/02/18 02:06:35;;;;;;;8.90;5.20;;;;;;;;;;5013380;28;20374;-77
2022/02/18 02:09:01;;;;;;;12.77;5.70;;;;;;;;;;5013235;28;20029;-77
2022/02/18 02:11:27;;;;;;;9.45;4.88;;;;;;;;;;5013172;28;20029;-77
2022/02/18 02:13:54;;;;;;;7.50;4.63;;;;;;;;;;5013215;28;20033;-77
2022/02/18 02:16:21;;;;;;;8.98;5.47;;;;;;;;;;5012984;28;20373;-77
2022/02/18 02:18:47;;;;;;;7.93;5.10;;;;;;;;;;5013144;28;20030;-77
2022/02/18 02:21:14;;;;;;;6.18;3.38;;;;;;;;;;5012677;28;20108;-77
2022/02/18 02:23:40;;;;;;;5.63;3.00;;;;;;;;;;5013170;28;20572;-77
2022/02/18 02:26:13;;;;;;;7.97;3.30;;;;;;;;;;5012757;28;20108;-77
2022/02/18 02:28:39;;;;;;;7.10;3.22;;;;;;;;;;5012971;28;20036;-77
2022/02/18 02:31:05;;;;;;;4.45;2.90;;;;;;;;;;5012427;28;20130;-77
2022/02/18 02:33:31;;;;;;;6.00;3.13;;;;;;;;;;5012820;28;20026;-77
2022/02/18 02:35:58;;;;;;;7.40;3.83;;;;;;;;;;5012873;28;20041;-77
2022/02/18 02:38:24;;;;;;;4.88;3.35;;;;;;;;;;5011371;28;20385;-77
2022/02/18 02:40:50;;;;;;;6.65;4.00;;;;;;;;;;5012815;28;20063;-78
2022/02/18 02:43:16;;;;;;;6.35;3.75;;;;;;;;;;5012602;28;20030;-77
2022/02/18 02:45:43;;;;;;;7.10;4.60;;;;;;;;;;5012632;28;20058;-77
2022/02/18 02:48:09;;;;;;;8.65;4.80;;;;;;;;;;5012473;28;20465;-76
2022/02/18 02:50:36;;;;;;;8.77;4.60;;;;;;;;;;5012775;28;20385;-77
2022/02/18 02:53:02;;;;;;;7.55;4.35;;;;;;;;;;5012646;28;20045;-77
2022/02/18 02:55:28;;;;;;;9.70;4.38;;;;;;;;;;5012544;28;20037;-80
2022/02/18 02:57:54;;;;;;;6.45;4.32;;;;;;;;;;5012585;28;20037;-77
2022/02/18 03:00:20;;;;;;;7.30;4.13;;;;;;;;;;5012310;28;20057;-79
2022/02/18 03:02:46;;;;;;;7.60;4.22;;;;;;;;;;5012558;28;20117;-76
2022/02/18 03:05:13;;;;;;;7.30;4.75;;;;;;;;;;5012255;28;20037;-77
2022/02/18 03:07:39;;;;;;;8.48;4.40;;;;;;;;;;5012431;28;20049;-77
2022/02/18 03:10:06;;;;;;;8.32;5.00;;;;;;;;;;5012241;28;20022;-77
2022/02/18 03:12:32;;;;;;;7.75;4.80;;;;;;;;;;5012300;28;20026;-77
2022/02/18 03:14:58;;;;;;;8.57;4.78;;;;;;;;;;5012428;28;20108;-78
2022/02/18 03:17:25;;;;;;;8.35;4.68;;;;;;;;;;5015791;28;20022;-76
2022/02/18 03:19:51;;;;;;;9.50;5.80;;;;;;;;;;5016361;28;20030;-77
2022/02/18 03:22:17;;;;;;;8.02;4.80;;;;;;;;;;5016140;28;20049;-76
2022/02/18 03:24:44;;;;;;;9.32;4.78;;;;;;;;;;5016104;28;20025;-76
2022/02/18 03:27:10;;;;;;;8.45;4.43;;;;;;;;;;5016231;28;20026;-77
2022/02/18 03:29:36;;;;;;;8.05;4.72;;;;;;;;;;5016202;28;20493;-76
2022/02/18 03:32:03;;;;;;;9.68;5.38;;;;;;;;;;5015973;28;20046;-77
2022/02/18 03:34:29;;;;;;;9.65;5.45;;;;;;;;;;5015895;28;20075;-77
2022/02/18 03:36:55;;;;;;;7.57;5.07;;;;;;;;;;5016182;28;20026;-77
2022/02/18 03:39:21;;;;;;;9.85;5.82;;;;;;;;;;5015836;28;20527;-77
2022/02/18 03:41:47;;;;;;;11.43;6.22;;;;;;;;;;5015944;28;20490;-77
2022/02/18 03:44:14;;;;;;;8.75;5.00;;;;;;;;;;5015793;28;20469;-76
2022/02/18 03:46:40;;;;;;;10.00;4.53;;;;;;;;;;5015657;28;20034;-77
2022/02/18 03:49:06;;;;;;;12.52;5.47;;;;;;;;;;5015652;28;20040;-76
2022/02/18 03:51:32;;;;;;;8.27;4.88;;;;;;;;;;5014477;28;20025;-77
2022/02/18 03:53:58;;;;;;;9.00;4.93;;;;;;;;;;5015690;28;20081;-78
2022/02/18 03:56:24;;;;;;;9.88;5.05;;;;;;;;;;5015756;28;20026;-76
2022/02/18 03:58:50;;;;;;;8.32;5.25;;;;;;;;;;5014254;28;20026;-76
2022/02/18 04:01:16;;;;;;;8.48;4.88;;;;;;;;;;5015575;28;20038;-78
2022/02/18 04:03:43;;;;;;;6.63;3.80;;;;;;;;;;5015238;28;20033;-76
2022/02/18 04:06:10;;;;;;;11.00;4.65;;;;;;;;;;5014003;28;20448;-77
2022/02/18 04:08:36;;;;;;;8.77;3.63;;;;;;;;;;5015288;28;20057;-76
2022/02/18 04:11:02;;;;;;;6.20;3.17;;;;;;;;;;5015513;28;20033;-76
2022/02/18 04:13:32;;;;;;;5.40;3.38;;;;;;;;;;5015320;28;20057;-77
2022/02/18 04:15:58;;;;;;;7.43;3.10;;;;;;;;;;5015120;28;20044;-76
2022/02/18 04:18:24;;;;;;;5.65;3.50;;;;;;;;;;5015222;28;20037;-77
2022/02/18 04:20:50;;;;;;;4.70;3.17;;;;;;;;;;5015017;28;20036;-77
2022/02/18 04:23:16;;;;;;;7.57;3.90;;;;;;;;;;5015145;28;20121;-77
2022/02/18 04:25:42;;;;;;;9.57;4.30;;;;;;;;;;5014932;28;20414;-76
2022/02/18 04:28:08;;;;;;;8.73;3.90;;;;;;;;;;5014806;28;20026;-76
2022/02/18 04:30:35;;;;;;;7.95;2.72;;;;;;;;;;5014928;28;20037;-76
2022/02/18 04:33:01;;;;;;;14.00;8.20;;;;;;;;;;5014881;28;20101;-78
2022/02/18 04:35:27;;;;;;;15.25;3.95;;;;;;;;;;5014991;28;20034;-77
2022/02/18 04:37:54;;;;;;;6.03;2.13;;;;;;;;;;5014556;28;20026;-76
2022/02/18 04:40:20;;;;;;;7.30;2.40;;;;;;;;;;5014909;28;21004;-76
2022/02/18 04:42:46;;;;;;;5.63;2.55;;;;;;;;;;5014555;28;20022;-77
2022/02/18 04:45:14;;;;;;;9.88;1.80;;;;;;;;;;5014754;28;20030;-77
2022/02/18 04:47:40;;;;;;;5.13;2.42;;;;;;;;;;5014716;28;20032;-77
2022/02/18 04:50:07;;;;;;;4.93;2.60;;;;;;;;;;5014484;28;20034;-79
2022/02/18 04:52:35;;;;;;;4.03;1.70;;;;;;;;;;5013487;28;20022;-75
2022/02/18 04:55:02;;;;;;;7.35;1.42;;;;;;;;;;5014247;28;20030;-74
2022/02/18 04:57:28;;;;;;;2.90;1.38;;;;;;;;;;5014278;28;20041;-77
2022/02/18 04:59:55;;;;;;;3.30;1.33;;;;;;;;;;5014166;28;20029;-76
2022/02/18 05:02:21;;;;;;;2.33;1.02;;;;;;;;;;5014181;28;20034;-78
2022/02/18 05:04:47;;;;;;;2.47;0.93;;;;;;;;;;5014138;28;20033;-76
2022/02/18 05:07:13;;;;;;;2.47;1.00;;;;;;;;;;5012982;28;20469;-76
2022/02/18 05:09:39;;;;;;;2.00;0.75;;;;;;;;;;5014406;28;20026;-80
2022/02/18 05:12:06;;;;;;;1.30;0.70;;;;;;;;;;5014014;28;20033;-77
2022/02/18 05:14:32;;;;;;;2.17;1.10;;;;;;;;;;5014119;28;20030;-76
2022/02/18 05:16:58;;;;;;;3.00;1.10;;;;;;;;;;5013869;28;20037;-76
2022/02/18 05:19:24;;;;;;;1.33;0.40;;;;;;;;;;5014054;28;20034;-78
2022/02/18 05:21:50;;;;;;;1.30;0.50;;;;;;;;;;5013885;28;20038;-75
2022/02/18 05:24:16;;;;;;;1.38;0.60;;;;;;;;;;5013943;28;20096;-77
2022/02/18 05:26:43;;;;;;;1.33;0.40;;;;;;;;;;5014061;28;20022;-79
2022/02/18 05:29:09;;;;;;;3.60;0.50;;;;;;;;;;5012263;28;20129;-78
2022/02/18 05:31:35;;;;;;;3.03;0.43;;;;;;;;;;5013775;28;20054;-77
2022/02/18 05:34:01;;;;;;;1.17;0.57;;;;;;;;;;5013562;28;20033;-79
2022/02/18 05:36:28;;;;;;;1.13;0.50;;;;;;;;;;5013802;28;20025;-77
2022/02/18 05:38:54;;;;;;;3.42;0.75;;;;;;;;;;5011660;28;20040;-79
2022/02/18 05:41:21;;;;;;;3.17;0.68;;;;;;;;;;5001096;28;20096;-77
2022/02/18 05:43:48;;;;;;;2.35;0.50;;;;;;;;;;4993686;28;20026;-77
2022/02/18 05:46:14;;;;;;;3.03;0.80;;;;;;;;;;4993907;28;20037;-80
2022/02/18 05:48:40;;;;;;;3.53;0.30;;;;;;;;;;5007031;28;20040;-78
2022/02/18 05:51:06;;;;;;;2.88;0.40;;;;;;;;;;5013206;28;20469;-79
2022/02/18 05:53:33;;;;;;;2.72;0.88;;;;;;;;;;5013403;28;20026;-77
2022/02/18 05:55:59;;;;;;;1.98;0.50;;;;;;;;;;5013399;28;20485;-79
2022/02/18 05:58:25;;;;;;;7.50;0.80;;;;;;;;;;5002237;28;20109;-78
2022/02/18 06:00:51;;;;;;;1.40;0.50;;;;;;;;;;4993826;28;20415;-77
2022/02/18 06:03:18;;;;;;;6.80;0.50;;;;;;;;;;5000496;28;20204;-81
2022/02/18 06:05:44;;;;;;;2.92;0.50;;;;;;;;;;5013043;28;20033;-79
2022/02/18 06:08:10;;;;;;;1.20;0.57;;;;;;;;;;5013007;28;20029;-80
2022/02/18 06:10:36;;;;;;;2.22;0.47;;;;;;;;;;5013119;28;20448;-78
2022/02/18 06:13:03;;;;;;;3.13;1.40;;;;;;;;;;5013097;28;20047;-78
2022/02/18 06:15:29;;;;;;;1.42;0.65;;;;;;;;;;5013006;28;20478;-78
2022/02/18 06:17:55;;;;;;;1.45;0.60;;;;;;;;;;5013262;28;20024;-78
2022/02/18 06:20:21;;;;;;;1.70;0.40;;;;;;;;;;5012241;28;20041;-78
2022/02/18 06:22:47;;;;;;;2.08;0.60;;;;;;;;;;5012924;28;20056;-78
2022/02/18 06:25:14;;;;;;;2.33;0.40;;;;;;;;;;5010616;28;20025;-80
2022/02/18 06:27:40;;;;;;;1.80;0.82;;;;;;;;;;5012122;28;20030;-79
2022/02/18 06:30:07;;;;;;;3.13;0.60;;;;;;;;;;4997744;28;20058;-78
2022/02/18 06:32:33;;;;;;;4.20;2.10;;;;;;;;;;4992260;28;20058;-79
2022/02/18 06:35:02;;;;;;;5.25;1.80;;;;;;;;;;4992773;28;20370;-80
2022/02/18 06:37:28;;;;;;;2.58;1.08;;;;;;;;;;4989645;28;21007;-79
2022/02/18 06:39:55;;;;;;;2.38;0.70;;;;;;;;;;4990932;28;20100;-78
2022/02/18 06:42:21;;;;;;;2.15;0.90;;;;;;;;;;4992806;28;20030;-81
2022/02/18 06:44:47;;;;;;;3.17;1.35;;;;;;;;;;4992462;28;20076;-78
2022/02/18 06:47:13;;;;;;;3.72;1.35;;;;;;;;;;4992389;28;20080;-81
2022/02/18 06:49:41;;;;;;;5.13;0.93;;;;;;;;;;4999715;28;20034;-79
2022/02/18 06:52:07;;;;;;;8.20;2.58;;;;;;;;;;5000307;28;20109;-79
2022/02/18 06:54:33;;;;;;;2.60;1.88;;;;;;;;;;4991625;28;20486;-79
2022/02/18 06:57:02;;;;;;;3.88;1.83;;;;;;;;;;4992675;28;20023;-74
2022/02/18 06:59:29;;;;;;;3.10;1.45;;;;;;;;;;4992405;28;20037;-80
2022/02/18 07:01:55;;;;;;;2.70;0.82;;;;;;;;;;4996412;28;20030;-77
2022/02/18 07:04:22;;;;;;;4.00;1.27;;;;;;;;;;5010967;28;20137;-77
2022/02/18 07:06:48;;;;;;;7.93;2.08;;;;;;;;;;5012089;28;20030;-77
2022/02/18 07:09:15;;;;;;;3.70;1.30;;;;;;;;;;5011815;28;20026;-81
2022/02/18 07:11:41;;;;;;;6.15;2.20;;;;;;;;;;5010376;28;20537;-79
2022/02/18 07:14:09;;;;;;;11.40;3.75;;;;;;;;;;5011042;28;20066;-80
2022/02/18 07:16:36;;;;;;;6.53;2.67;;;;;;;;;;5011719;28;20018;-80
2022/02/18 07:19:02;;;;;;;3.15;1.42;;;;;;;;;;5011139;28;20034;-78
2022/02/18 07:21:28;;;;;;;7.90;7.30;;;;;;;;;;5011809;28;20046;-78
2022/02/18 07:23:54;;;;;;;6.47;1.95;;;;;;;;;;5012328;28;20094;-77
2022/02/18 07:26:20;;;;;;;5.10;1.95;;;;;;;;;;5010865;28;20080;-78
2022/02/18 07:28:46;;;;;;;4.65;2.30;;;;;;;;;;4997926;28;20591;-78
2022/02/18 07:31:12;;;;;;;4.72;1.73;;;;;;;;;;4991892;28;20502;-80
2022/02/18 07:33:39;;;;;;;2.45;0.60;;;;;;;;;;4992133;28;20039;-77
2022/02/18 07:36:05;;;;;;;2.33;1.05;;;;;;;;;;4991812;28;20030;-81
2022/02/18 07:38:34;;;;;;;3.08;0.65;;;;;;;;;;4991597;28;20034;-77
2022/02/18 07:41:00;;;;;;;2.95;0.82;;;;;;;;;;4990912;28;20073;-80
2022/02/18 07:43:26;;;;;;;2.58;0.70;;;;;;;;;;4992245;28;20054;-79
2022/02/18 07:45:56;;;;;;;8.80;4.70;;;;;;;;;;4992118;28;20181;-76
2022/02/18 07:48:22;;;;;;;2.75;0.77;;;;;;;;;;4991910;28;20374;-79
2022/02/18 07:50:48;;;;;;;3.80;1.65;;;;;;;;;;5019335;28;20062;-78
2022/02/18 07:53:14;;;;;;;3.38;0.85;;;;;;;;;;5030118;28;20038;-78
2022/02/18 07:55:40;;;;;;;3.30;1.50;;;;;;;;;;5030889;28;20026;-78
2022/02/18 07:58:07;;;;;;;4.43;1.60;;;;;;;;;;5030036;28;20029;-78
2022/02/18 08:00:34;;;;;;;3.58;1.52;;;;;;;;;;5030621;28;20048;-80
2022/02/18 08:03:00;;;;;;;2.60;0.90;;;;;;;;;;5028789;28;20038;-77
2022/02/18 08:05:26;;;;;;;3.63;1.50;;;;;;;;;;5031833;28;20029;-79
2022/02/18 08:07:55;;;;;;;3.72;1.10;;;;;;;;;;5033956;28;20083;-80
2022/02/18 08:10:25;;;;;;;3.53;1.33;;;;;;;;;;5033677;28;20064;-81
2022/02/18 08:12:51;;;;;;;3.38;1.17;;;;;;;;;;5033872;28;20021;-77
2022/02/18 08:15:17;;;;;;;4.03;1.20;;;;;;;;;;5032724;28;20053;-80
2022/02/18 08:17:43;;;;;;;2.00;0.80;;;;;;;;;;5032261;28;20040;-77
2022/02/18 08:20:11;;;;;;;1.92;1.05;;;;;;;;;;5033831;28;20034;-76
2022/02/18 08:22:37;;;;;;;1.75;0.85;;;;;;;;;;5033361;28;20037;-77
2022/02/18 08:25:04;;;;;;;3.38;1.38;;;;;;;;;;5021498;28;20030;-77
2022/02/18 08:27:30;;;;;;;2.45;0.85;;;;;;;;;;4994011;28;20054;-77
2022/02/18 08:29:57;;;;;;;5.25;1.73;;;;;;;;;;4993744;28;20026;-77
2022/02/18 08:32:23;;;;;;;3.13;1.30;;;;;;;;;;5014789;28;20058;-77
2022/02/18 08:34:49;;;;;;;3.97;0.93;;;;;;;;;;5031796;28;20377;-79
2022/02/18 08:37:16;;;;;;;6.40;1.60;;;;;;;;;;5033696;28;20035;-78
2022/02/18 08:39:42;;;;;;;3.90;1.88;;;;;;;;;;5033259;28;20041;-77
2022/02/18 08:42:08;;;;;;;3.92;1.00;;;;;;;;;;5033432;28;20036;-76
2022/02/18 08:44:34;;;;;;;3.40;1.60;;;;;;;;;;5032942;28;20175;-76
2022/02/18 08:47:00;;;;;;;5.32;1.92;;;;;;;;;;5032830;28;20431;-77
2022/02/18 08:49:27;;;;;;;3.92;1.38;;;;;;;;;;5016548;28;20022;-77
2022/02/18 08:51:53;;;;;;;3.85;2.03;;;;;;;;;;4993592;28;20037;-79
2022/02/18 08:54:19;;;;;;;4.28;1.10;;;;;;;;;;4993546;28;20057;-78
2022/02/18 08:56:45;;;;;;;6.15;2.83;;;;;;;;;;4991448;28;20093;-76
2022/02/18 08:59:12;;;;;;;5.82;2.88;;;;;;;;;;4993688;28;20496;-75
2022/02/18 09:01:38;;;;;;;14.85;2.95;;;;;;;;;;4992172;28;20580;-78
2022/02/18 09:04:04;;;;;;;2.83;0.75;;;;;;;;;;4993555;28;20058;-81
2022/02/18 09:06:32;;;;;;;5.65;1.67;;;;;;;;;;4993513;28;20057;-77
2022/02/18 09:08:58;;;;;;;3.15;1.00;;;;;;;;;;4992796;28;20033;-78
2022/02/18 09:11:24;;;;;;;3.70;1.23;;;;;;;;;;4992812;28;20097;-76
2022/02/18 09:13:50;;;;;;;5.70;1.92;;;;;;;;;;4992485;28;20041;-77
2022/02/18 09:16:17;;;;;;;2.38;0.75;;;;;;;;;;4993153;28;20058;-77
2022/02/18 09:18:44;;;;;;;4.80;1.90;;;;;;;;;;4993213;28;20022;-80
2022/02/18 09:21:10;;;;;;;3.75;1.30;;;;;;;;;;4992881;28;20034;-78
2022/02/18 09:23:36;;;;;;;3.75;1.45;;;;;;;;;;4991598;28;20056;-76
2022/02/18 09:26:02;;;;;;;4.65;1.30;;;;;;;;;;4992452;28;20034;-76
2022/02/18 09:28:29;;;;;;;3.10;1.25;;;;;;;;;;4992619;28;20041;-77
2022/02/18 09:30:58;;;;;;;3.00;0.75;;;;;;;;;;4992770;28;20517;-79
2022/02/18 09:33:25;;;;;;;2.20;0.95;;;;;;;;;;4992760;28;20033;-78
2022/02/18 09:35:51;;;;;;;7.55;3.20;;;;;;;;;;4993280;28;20090;-76
2022/02/18 09:38:18;;;;;;;7.30;3.45;;;;;;;;;;4993050;28;20153;-78
2022/02/18 09:40:44;;;;;;;7.18;2.25;;;;;;;;;;4992630;28;20042;-77
2022/02/18 09:43:10;;;;;;;5.90;2.50;;;;;;;;;;5007579;28;20229;-76
2022/02/18 09:45:36;;;;;;;6.35;3.40;;;;;;;;;;5012068;28;20477;-77
2022/02/18 09:48:08;;;;;;;6.80;3.15;;;;;;;;;;5011616;28;20032;-77
2022/02/18 09:50:37;;;;;;;6.22;3.40;;;;;;;;;;5011159;28;20040;-79
2022/02/18 09:53:03;;;;;;;14.05;6.10;;;;;;;;;;4994266;28;20038;-75
2022/02/18 09:55:31;;;;;;;7.18;2.88;;;;;;;;;;5010998;28;20025;-75
2022/02/18 09:57:58;;;;;;;5.03;2.22;;;;;;;;;;5010831;28;20026;-76
2022/02/18 10:00:25;;;;;;;10.93;5.07;;;;;;;;;;5011172;28;20450;-78
2022/02/18 10:02:52;;;;;;;14.10;6.78;;;;;;;;;;5011357;28;20022;-79
2022/02/18 10:05:18;;;;;;;6.38;3.30;;;;;;;;;;5011325;28;20057;-77
2022/02/18 10:08:04;;;;;;;6.93;3.40;;;;;;;;;;5011791;28;20034;-76
2022/02/18 10:10:30;;;;;;;6.57;1.42;;;;;;;;;;5001004;28;20032;-80
2022/02/18 10:12:56;;;;;;;2.88;0.80;;;;;;;;;;5011594;28;20053;-79
2022/02/18 10:15:23;;;;;;;6.00;2.95;;;;;;;;;;5011344;28;20396;-78
2022/02/18 10:17:49;;;;;;;4.80;1.38;;;;;;;;;;5011748;28;20034;-81
2022/02/18 10:20:19;;;;;;;4.28;1.88;;;;;;;;;;5006045;28;20127;-80
2022/02/18 10:23:04;;;;;;;4.25;2.22;;;;;;;;;;5003117;28;20030;-80
2022/02/18 10:25:31;;;;;;;4.43;1.40;;;;;;;;;;5001708;28;20491;-80
2022/02/18 10:27:58;;;;;;;8.05;6.28;;;;;;;;;;5004575;28;20022;-81
2022/02/18 10:30:30;;;;;;;3.65;1.35;;;;;;;;;;5000581;28;20030;-83
2022/02/18 10:33:23;;;;;;;4.15;1.42;;;;;;;;;;5000768;28;20057;-79
2022/02/18 10:35:57;;;;;;;9.02;4.47;;;;;;;;;;5000881;28;20085;-79
2022/02/18 10:38:30;;;;;;;5.50;2.97;;;;;;;;;;4997414;28;20033;-78
2022/02/18 10:40:59;;;;;;;4.60;2.60;;;;;;;;;;4993766;28;20030;-78
2022/02/18 10:43:26;;;;;;;4.40;2.40;;;;;;;;;;5010576;28;20053;-79
2022/02/18 10:45:53;;;;;;;7.60;2.55;;;;;;;;;;5002198;28;20025;-76
2022/02/18 10:48:24;;;;;;;6.53;2.17;;;;;;;;;;4998697;28;20150;-78
2022/02/18 10:51:10;;;;;;;6.43;1.90;;;;;;;;;;4999859;28;20034;-77
2022/02/18 10:53:41;;;;;;;6.82;4.15;;;;;;;;;;4999236;28;20064;-76
2022/02/18 10:56:08;;;;;;;5.72;2.88;;;;;;;;;;4999334;28;20038;-75
2022/02/18 10:58:35;;;;;;;5.75;2.35;;;;;;;;;;5000095;28;20117;-78
2022/02/18 11:01:09;;;;;;;2.65;1.20;;;;;;;;;;5000128;28;20030;-79
2022/02/18 11:03:36;;;;;;;3.70;0.98;;;;;;;;;;4998447;28;20031;-77
2022/02/18 11:06:10;;;;;;;1.98;0.50;;;;;;;;;;5000132;28;20056;-77
2022/02/18 11:08:36;;;;;;;;;;;;;;;;;;4999003;28;20496;-78
2022/02/18 11:11:10;;;;;;;6.10;2.38;;;;;;;;;;5001021;28;19952;-77
2022/02/18 11:13:36;;;;;;;5.55;1.45;;;;;;;;;;4999862;28;20508;-77
2022/02/18 11:16:04;;;;;;;4.22;1.48;;;;;;;;;;4997179;28;20378;-78
2022/02/18 11:18:30;;;;;;;5.22;2.53;;;;;;;;;;5010987;28;20041;-79
2022/02/18 11:20:57;;;;;;;4.97;2.35;;;;;;;;;;5011149;28;20417;-78
2022/02/18 11:23:23;;;;;;;3.03;1.08;;;;;;;;;;5010737;28;20029;-77
2022/02/18 11:25:50;;;;;;;4.38;2.10;;;;;;;;;;5009384;28;20030;-75
2022/02/18 11:28:16;;;;;;;4.25;2.00;;;;;;;;;;5010315;28;20029;-76
2022/02/18 11:30:47;;;;;;;8.20;3.08;;;;;;;;;;5010464;28;20038;-76
2022/02/18 11:33:28;;;;;;;9.90;3.53;;;;;;;;;;5010269;28;20034;-74
2022/02/18 11:36:13;;;;;;;31.67;10.60;;;;;;;;;;5010856;28;20145;-76
2022/02/18 11:38:39;;;;;;;22.20;7.22;;;;;;;;;;5014805;28;20485;-75
2022/02/18 11:41:11;;;;;;;4.07;1.85;;;;;;;;;;5009986;28;20041;-75
2022/02/18 11:43:47;;;;;;;25.45;9.30;;;;;;;;;;5004689;28;20046;-79
2022/02/18 11:46:24;;;;;;;56.40;19.88;;;;;;;;;;5014078;28;20025;-76
2022/02/18 11:48:51;;;;;;;4.13;1.27;;;;;;;;;;5013412;28;20510;-75
2022/02/18 11:51:22;;;;;;;5.72;2.28;;;;;;;;;;5013226;28;20072;-78
2022/02/18 11:53:53;;;;;;;5.57;3.45;;;;;;;;;;5010678;28;20030;-76
2022/02/18 11:56:49;;;;;;;5.82;3.20;;;;;;;;;;5011109;28;20034;-77
2022/02/18 11:59:15;;;;;;;2.15;1.15;;;;;;;;;;4997708;28;20508;-77
2022/02/18 12:02:00;;;;;;;4.03;1.50;;;;;;;;;;5015119;28;20038;-79
2022/02/18 12:04:27;;;;;;;2.45;0.63;;;;;;;;;;5015097;28;20044;-76
2022/02/18 12:07:11;;;;;;;2.67;1.00;;;;;;;;;;5015137;28;20088;-78
2022/02/18 12:09:56;;;;;;;3.45;1.58;;;;;;;;;;5014561;28;20129;-76
2022/02/18 12:12:25;;;;;;;3.75;1.27;;;;;;;;;;5012967;28;20362;-77
2022/02/18 12:14:54;;;;;;;3.42;1.08;;;;;;;;;;5014431;28;20022;-78
2022/02/18 12:17:21;;;;;;;3.10;1.52;;;;;;;;;;5003523;28;20038;-75
2022/02/18 12:19:47;;;;;;;2.53;1.05;;;;;;;;;;4993768;28;20037;-78
2022/02/18 12:22:13;;;;;;;4.85;2.88;;;;;;;;;;4995422;28;20030;-78
2022/02/18 12:24:58;;;;;;;3.47;1.45;;;;;;;;;;4995067;28;20504;-82
2022/02/18 12:27:34;;;;;;;2.88;1.20;;;;;;;;;;5002672;28;20026;-78
2022/02/18 12:30:20;;;;;;;5.05;1.05;;;;;;;;;;5014841;28;20511;-78
2022/02/18 12:32:46;;;;;;;4.57;2.13;;;;;;;;;;5014453;28;20058;-77
2022/02/18 12:35:15;;;;;;;3.72;2.05;;;;;;;;;;5014643;28;20084;-77
2022/02/18 12:37:41;;;;;;;4.53;2.13;;;;;;;;;;5003374;28;20125;-79
2022/02/18 12:40:14;;;;;;;3.90;1.70;;;;;;;;;;5010662;28;20485;-76
2022/02/18 12:42:42;;;;;;;1.48;0.55;;;;;;;;;;5013803;28;20029;-78
2022/02/18 12:45:09;;;;;;;5.65;2.33;;;;;;;;;;5013231;28;20030;-79
2022/02/18 12:47:36;;;;;;;3.25;1.75;;;;;;;;;;5012990;28;20030;-77
2022/02/18 12:50:07;;;;;;;3.55;1.23;;;;;;;;;;5002675;28;20031;-67
2022/02/18 12:52:33;;;;;;;3.10;1.08;;;;;;;;;;5006470;28;20083;-77
2022/02/18 12:55:01;;;;;;;4.70;2.30;;;;;;;;;;5012039;28;20485;-78
2022/02/18 12:57:29;;;;;;;4.75;1.10;;;;;;;;;;5012045;28;20054;-78
2022/02/18 12:59:55;;;;;;;4.40;1.23;;;;;;;;;;5013850;28;20026;-77
2022/02/18 13:02:37;;;;;;;5.38;2.47;;;;;;;;;;5014519;28;20481;-76
2022/02/18 13:05:08;;;;;;;4.65;2.70;;;;;;;;;;5010203;28;20425;-80
2022/02/18 13:07:35;;;;;;;3.63;0.80;;;;;;;;;;4994784;28;20097;-78
2022/02/18 13:10:02;;;;;;;5.13;1.65;;;;;;;;;;5003914;28;20038;-82
2022/02/18 13:12:28;;;;;;;5.60;1.27;;;;;;;;;;5002806;28;20382;-77
2022/02/18 13:15:09;;;;;;;5.70;2.22;;;;;;;;;;5009587;28;20465;-78
2022/02/18 13:17:35;;;;;;;3.75;1.23;;;;;;;;;;5009672;28;20045;-80
2022/02/18 13:20:02;;;;;;;4.20;0.80;;;;;;;;;;5002172;28;20029;-79
2022/02/18 13:22:38;;;;;;;5.25;2.13;;;;;;;;;;5004123;28;20014;-77
2022/02/18 13:25:23;;;;;;;1.92;0.88;;;;;;;;;;5003214;28;20048;-78
2022/02/18 13:27:49;;;;;;;3.25;1.52;;;;;;;;;;5001804;28;20033;-77
2022/02/18 13:30:19;;;;;;;5.32;1.38;;;;;;;;;;5003247;28;20140;-80
2022/02/18 13:32:46;;;;;;;5.18;1.25;;;;;;;;;;5003521;28;20046;-79
2022/02/18 13:35:18;;;;;;;4.38;1.83;;;;;;;;;;5010495;28;20026;-76
2022/02/18 13:37:44;;;;;;;6.50;3.15;;;;;;;;;;5013200;28;20029;-77
2022/02/18 13:40:14;;;;;;;4.53;1.67;;;;;;;;;;5013527;28;20038;-74
2022/02/18 13:42:58;;;;;;;5.60;1.83;;;;;;;;;;5004530;28;20158;-78
2022/02/18 13:45:28;;;;;;;5.32;1.75;;;;;;;;;;5001289;28;20121;-76
2022/02/18 13:47:55;;;;;;;6.80;2.45;;;;;;;;;;5013818;28;20173;-78
2022/02/18 13:50:21;;;;;;;6.82;2.20;;;;;;;;;;5013428;28;20095;-79
2022/02/18 13:52:48;;;;;;;4.38;0.95;;;;;;;;;;5013688;28;20026;-76
2022/02/18 13:55:25;;;;;;;5.55;1.50;;;;;;;;;;5011830;28;20026;-77
2022/02/18 13:57:52;;;;;;;2.90;1.30;;;;;;;;;;5013210;28;20026;-70
2022/02/18 14:00:36;;;;;;;7.22;2.58;;;;;;;;;;5013216;28;20070;-76
2022/02/18 14:03:03;;;;;;;5.38;2.75;;;;;;;;;;5000989;28;20037;-79
2022/02/18 14:05:30;;;;;;;4.28;1.27;;;;;;;;;;5001041;28;20052;-78
2022/02/18 14:08:06;;;;;;;5.65;1.98;;;;;;;;;;5004884;28;20142;-78
2022/02/18 14:10:42;;;;;;;8.27;2.50;;;;;;;;;;5010310;28;20029;-78
2022/02/18 14:13:20;;;;;;;4.30;1.55;;;;;;;;;;5005049;28;20038;-79
2022/02/18 14:15:46;;;;;;;5.10;1.77;;;;;;;;;;4993422;28;20026;-77
2022/02/18 14:18:17;;;;;;;3.53;1.17;;;;;;;;;;4993240;28;20062;-79
2022/02/18 14:20:46;;;;;;;6.93;2.13;;;;;;;;;;5001076;28;20116;-79
2022/02/18 14:23:12;;;;;;;4.18;1.35;;;;;;;;;;5012834;28;20044;-78
2022/02/18 14:25:50;;;;;;;2.60;1.30;;;;;;;;;;5007437;28;20054;-78
2022/02/18 14:28:17;;;;;;;7.25;2.70;;;;;;;;;;4997870;28;20018;-77
2022/02/18 14:30:44;;;;;;;4.00;1.30;;;;;;;;;;4992520;28;20046;-76
2022/02/18 14:33:20;;;;;;;6.13;1.65;;;;;;;;;;4992560;28;20048;-77
2022/02/18 14:35:46;;;;;;;5.68;2.45;;;;;;;;;;5006723;28;20053;-78
2022/02/18 14:38:13;;;;;;;6.28;2.20;;;;;;;;;;5013213;28;20036;-76
2022/02/18 14:40:39;;;;;;;5.47;2.00;;;;;;;;;;5013148;28;20123;-77
2022/02/18 14:43:06;;;;;;;4.20;1.50;;;;;;;;;;5013006;28;20026;-77
2022/02/18 14:45:32;;;;;;;4.20;1.50;;;;;;;;;;5000525;28;20034;-78